createdAt,value
2018-07-21T00:01:25.739Z,20.20
2018-07-21T00:03:54.267Z,20.00
2018-07-21T00:06:22.992Z,20.00
2018-07-21T00:08:51.489Z,19.90
2018-07-21T00:11:19.984Z,19.80
2018-07-21T00:13:48.580Z,19.90
2018-07-21T00:16:17.499Z,19.80
2018-07-21T00:18:46.184Z,19.70
2018-07-21T00:21:14.736Z,19.80
2018-07-21T00:23:43.277Z,19.80
2018-07-21T00:26:11.840Z,19.70
2018-07-21T00:28:40.711Z,19.70
2018-07-21T00:31:09.612Z,19.70
2018-07-21T00:33:38.224Z,19.80
2018-07-21T00:36:06.792Z,20.00
2018-07-21T00:38:35.598Z,20.00
2018-07-21T00:41:04.193Z,19.20
2018-07-21T00:43:32.771Z,20.10
2018-07-21T00:46:01.819Z,20.10
2018-07-21T00:48:30.412Z,20.00
2018-07-21T00:50:58.904Z,20.00
2018-07-21T00:53:31.573Z,19.90
2018-07-21T00:56:01.806Z,19.80
2018-07-21T00:58:30.268Z,19.70
2018-07-21T01:00:58.929Z,19.70
2018-07-21T01:03:27.452Z,19.60
2018-07-21T01:05:55.880Z,19.60
2018-07-21T01:08:24.381Z,19.50
2018-07-21T01:10:52.969Z,19.60
2018-07-21T01:13:21.427Z,19.70
2018-07-21T01:15:49.869Z,19.80
2018-07-21T01:18:18.336Z,19.80
2018-07-21T01:20:46.752Z,19.80
2018-07-21T01:23:15.204Z,19.80
2018-07-21T01:25:43.633Z,19.80
2018-07-21T01:28:12.065Z,19.70
2018-07-21T01:30:40.526Z,19.70
2018-07-21T01:33:08.984Z,19.60
2018-07-21T01:35:37.423Z,19.60
2018-07-21T01:38:05.868Z,19.50
2018-07-21T01:40:34.350Z,19.50
2018-07-21T01:43:02.782Z,19.40
2018-07-21T01:45:31.228Z,19.40
2018-07-21T01:47:59.636Z,19.40
2018-07-21T01:50:28.092Z,19.40
2018-07-21T01:52:56.628Z,19.40
2018-07-21T01:55:25.070Z,19.30
2018-07-21T01:57:53.541Z,19.30
2018-07-21T02:00:22.048Z,19.40
2018-07-21T02:02:50.467Z,19.40
2018-07-21T02:05:18.920Z,19.40
2018-07-21T02:07:47.349Z,19.30
2018-07-21T02:10:15.764Z,19.40
2018-07-21T02:12:44.382Z,19.30
2018-07-21T02:15:13.734Z,19.20
2018-07-21T02:17:42.136Z,19.20
2018-07-21T02:20:10.569Z,19.20
2018-07-21T02:22:39.147Z,19.20
2018-07-21T02:27:35.652Z,19.20
2018-07-21T02:30:04.714Z,19.20
2018-07-21T02:32:33.156Z,19.20
2018-07-21T02:35:01.597Z,19.10
2018-07-21T02:37:30.115Z,19.10
2018-07-21T02:39:58.540Z,19.00
2018-07-21T02:42:26.969Z,19.00
2018-07-21T02:44:55.433Z,19.00
2018-07-21T02:47:23.861Z,19.00
2018-07-21T02:49:52.304Z,19.10
2018-07-21T02:52:20.752Z,19.20
2018-07-21T02:57:17.325Z,19.10
2018-07-21T02:59:45.765Z,19.00
2018-07-21T03:02:14.232Z,18.90
2018-07-21T03:04:42.664Z,18.90
2018-07-21T03:07:11.084Z,18.90
2018-07-21T03:09:39.530Z,18.80
2018-07-21T03:12:07.960Z,18.80
2018-07-21T03:14:36.413Z,18.80
2018-07-21T03:17:04.853Z,18.70
2018-07-21T03:19:33.323Z,18.70
2018-07-21T03:22:01.808Z,18.60
2018-07-21T03:26:58.504Z,18.70
2018-07-21T03:29:26.929Z,18.80
2018-07-21T03:31:55.368Z,18.80
2018-07-21T03:34:23.789Z,18.70
2018-07-21T03:36:52.248Z,18.70
2018-07-21T03:39:20.685Z,18.70
2018-07-21T03:41:49.142Z,18.70
2018-07-21T03:44:17.573Z,18.80
2018-07-21T03:46:46.045Z,18.70
2018-07-21T03:49:14.456Z,18.60
2018-07-21T03:51:42.888Z,18.50
2018-07-21T03:54:11.327Z,18.40
2018-07-21T03:56:39.780Z,18.30
2018-07-21T03:59:08.298Z,18.30
2018-07-21T04:01:36.733Z,18.20
2018-07-21T04:04:05.544Z,18.10
2018-07-21T04:06:33.973Z,18.00
2018-07-21T04:09:02.513Z,17.90
2018-07-21T04:11:30.908Z,17.80
2018-07-21T04:13:59.449Z,17.80
2018-07-21T04:16:27.913Z,17.80
2018-07-21T04:18:56.312Z,17.70
2018-07-21T04:21:24.729Z,17.80
2018-07-21T04:23:53.172Z,17.80
2018-07-21T04:26:21.600Z,17.80
2018-07-21T04:28:50.042Z,17.80
2018-07-21T04:31:18.513Z,17.80
2018-07-21T04:33:46.932Z,17.90
2018-07-21T04:36:15.396Z,17.90
2018-07-21T04:38:43.808Z,18.10
2018-07-21T04:41:12.296Z,18.00
2018-07-21T04:43:40.735Z,18.00
2018-07-21T04:46:09.292Z,17.90
2018-07-21T04:48:37.721Z,18.00
2018-07-21T04:51:06.420Z,18.10
2018-07-21T04:53:34.843Z,18.10
2018-07-21T04:56:03.425Z,18.00
2018-07-21T04:58:31.877Z,18.10
2018-07-21T05:01:00.374Z,18.00
2018-07-21T05:03:28.801Z,18.10
2018-07-21T05:05:57.248Z,18.20
2018-07-21T05:08:25.717Z,18.40
2018-07-21T05:10:54.152Z,18.40
2018-07-21T05:13:22.589Z,18.50
2018-07-21T05:15:51.036Z,18.60
2018-07-21T05:18:19.516Z,18.60
2018-07-21T05:20:47.996Z,18.60
2018-07-21T05:23:16.429Z,18.90
2018-07-21T05:25:44.865Z,19.00
2018-07-21T05:28:13.314Z,19.20
2018-07-21T05:30:41.835Z,19.60
2018-07-21T05:33:10.487Z,20.00
2018-07-21T05:35:39.949Z,19.90
2018-07-21T05:38:08.449Z,19.90
2018-07-21T05:40:36.872Z,19.70
2018-07-21T05:43:05.448Z,19.40
2018-07-21T05:45:33.885Z,19.40
2018-07-21T05:48:02.377Z,19.70
2018-07-21T05:50:30.792Z,20.30
2018-07-21T05:53:00.184Z,20.50
2018-07-21T05:55:28.617Z,19.80
2018-07-21T05:57:57.100Z,19.80
2018-07-21T06:00:25.573Z,19.60
2018-07-21T06:02:54.108Z,19.50
2018-07-21T06:05:22.477Z,20.20
2018-07-21T06:07:50.916Z,21.80
2018-07-21T06:10:19.380Z,22.80
2018-07-21T06:12:47.832Z,23.60
2018-07-21T06:15:16.308Z,23.90
2018-07-21T06:17:44.785Z,23.10
2018-07-21T06:20:13.228Z,22.00
2018-07-21T06:22:41.720Z,21.80
2018-07-21T06:25:10.249Z,21.30
2018-07-21T06:27:38.686Z,21.30
2018-07-21T06:32:35.560Z,21.60
2018-07-21T06:35:04.094Z,21.50
2018-07-21T06:37:32.622Z,21.70
2018-07-21T06:42:29.190Z,21.70
2018-07-21T06:44:57.944Z,22.10
2018-07-21T06:47:26.406Z,22.50
2018-07-21T06:49:55.592Z,22.70
2018-07-21T06:52:24.044Z,22.70
2018-07-21T06:54:52.479Z,22.80
2018-07-21T06:57:20.940Z,23.40
2018-07-21T06:59:49.385Z,22.80
2018-07-21T07:02:17.824Z,22.50
2018-07-21T07:04:46.359Z,22.80
2018-07-21T07:07:14.706Z,22.70
2018-07-21T07:09:43.200Z,23.30
2018-07-21T07:12:11.640Z,23.60
2018-07-21T07:14:40.095Z,23.10
2018-07-21T07:17:08.513Z,23.30
2018-07-21T07:19:36.973Z,24.00
2018-07-21T07:24:33.552Z,24.10
2018-07-21T07:27:01.983Z,24.10
2018-07-21T07:29:30.428Z,23.70
2018-07-21T07:31:59.064Z,23.70
2018-07-21T07:34:27.504Z,24.20
2018-07-21T07:36:55.934Z,24.80
2018-07-21T07:39:25.171Z,25.10
2018-07-21T07:41:53.585Z,24.80
2018-07-21T07:44:22.042Z,25.60
2018-07-21T07:46:50.457Z,27.60
2018-07-21T07:49:18.900Z,27.90
2018-07-21T07:51:47.334Z,28.90
2018-07-21T07:54:15.864Z,28.40
2018-07-21T07:56:44.293Z,29.10
2018-07-21T07:59:12.759Z,27.80
2018-07-21T08:01:41.209Z,27.00
2018-07-21T08:04:09.838Z,27.60
2018-07-21T08:06:38.272Z,27.70
2018-07-21T08:09:08.680Z,27.00
2018-07-21T08:11:37.136Z,25.90
2018-07-21T08:14:05.594Z,26.60
2018-07-21T08:16:34.031Z,26.00
2018-07-21T08:19:02.448Z,26.00
2018-07-21T08:21:30.996Z,26.10
2018-07-21T08:23:59.654Z,27.30
2018-07-21T08:26:28.108Z,27.20
2018-07-21T08:28:56.552Z,26.90
2018-07-21T08:31:25.025Z,25.70
2018-07-21T08:33:53.468Z,25.50
2018-07-21T08:36:21.972Z,26.50
2018-07-21T08:38:50.429Z,27.30
2018-07-21T08:41:18.867Z,26.70
2018-07-21T08:43:47.300Z,26.90
2018-07-21T08:46:16.108Z,26.60
2018-07-21T08:48:44.814Z,26.90
2018-07-21T08:51:13.580Z,27.10
2018-07-21T08:53:42.712Z,26.80
2018-07-21T08:56:11.195Z,29.10
2018-07-21T08:58:39.721Z,29.20
2018-07-21T09:01:08.233Z,29.40
2018-07-21T09:03:36.637Z,30.10
2018-07-21T09:06:05.309Z,27.20
2018-07-21T09:08:33.732Z,26.90
2018-07-21T09:11:02.164Z,28.60
2018-07-21T09:13:30.704Z,30.40
2018-07-21T09:15:59.268Z,29.30
2018-07-21T09:18:27.709Z,28.90
2018-07-21T09:20:56.129Z,29.10
2018-07-21T09:23:24.627Z,27.90
2018-07-21T09:25:53.388Z,28.40
2018-07-21T09:28:21.821Z,30.00
2018-07-21T09:30:50.263Z,27.80
2018-07-21T09:33:19.052Z,28.60
2018-07-21T09:35:47.485Z,28.80
2018-07-21T09:38:15.964Z,29.50
2018-07-21T09:40:44.716Z,30.00
2018-07-21T09:43:13.156Z,28.40
2018-07-21T09:45:41.586Z,27.60
2018-07-21T09:48:10.053Z,26.80
2018-07-21T09:50:38.564Z,27.30
2018-07-21T09:53:07.018Z,27.30
2018-07-21T09:55:35.616Z,27.60
2018-07-21T09:58:04.021Z,28.10
2018-07-21T10:00:37.669Z,28.80
2018-07-21T10:03:06.109Z,29.40
2018-07-21T10:05:34.662Z,29.80
2018-07-21T10:08:03.102Z,29.20
2018-07-21T10:10:31.532Z,30.00
2018-07-21T10:13:00.006Z,30.90
2018-07-21T10:15:28.525Z,30.00
2018-07-21T10:17:57.008Z,30.00
2018-07-21T10:20:26.217Z,30.40
2018-07-21T10:22:54.656Z,31.10
2018-07-21T10:25:28.345Z,29.70
2018-07-21T10:28:02.069Z,27.60
2018-07-21T10:30:30.580Z,27.60
2018-07-21T10:32:59.044Z,27.90
2018-07-21T10:35:27.512Z,29.10
2018-07-21T10:37:55.963Z,29.40
2018-07-21T10:40:24.415Z,28.70
2018-07-21T10:42:53.353Z,30.00
2018-07-21T10:45:21.778Z,30.00
2018-07-21T10:47:50.374Z,29.80
2018-07-21T10:50:18.924Z,30.60
2018-07-21T10:52:47.400Z,30.00
2018-07-21T10:55:15.833Z,28.00
2018-07-21T10:57:44.700Z,29.70
2018-07-21T11:00:13.125Z,31.00
2018-07-21T11:02:41.560Z,31.20
2018-07-21T11:05:10.292Z,31.40
2018-07-21T11:07:38.936Z,31.10
2018-07-21T11:10:07.572Z,31.20
2018-07-21T11:12:36.008Z,30.80
2018-07-21T11:15:05.141Z,29.70
2018-07-21T11:17:33.514Z,31.00
2018-07-21T11:20:01.941Z,31.30
2018-07-21T11:22:30.361Z,31.40
2018-07-21T11:24:58.867Z,30.60
2018-07-21T11:27:27.309Z,31.40
2018-07-21T11:29:55.756Z,32.30
2018-07-21T11:32:24.350Z,32.50
2018-07-21T11:34:53.017Z,32.20
2018-07-21T11:39:50.258Z,30.50
2018-07-21T11:42:18.681Z,29.30
2018-07-21T11:44:47.129Z,31.00
2018-07-21T11:47:15.564Z,30.60
2018-07-21T11:49:44.003Z,29.50
2018-07-21T11:52:12.497Z,31.10
2018-07-21T11:54:41.141Z,31.70
2018-07-21T11:57:09.558Z,32.20
2018-07-21T11:59:37.992Z,33.20
2018-07-21T12:02:06.593Z,32.70
2018-07-21T12:07:03.254Z,30.90
2018-07-21T12:09:31.741Z,31.30
2018-07-21T12:12:00.262Z,31.60
2018-07-21T12:14:28.816Z,32.10
2018-07-21T12:16:57.452Z,32.50
2018-07-21T12:19:25.952Z,31.90
2018-07-21T12:21:54.368Z,32.20
2018-07-21T12:24:22.913Z,32.20
2018-07-21T12:26:51.381Z,31.80
2018-07-21T12:29:19.858Z,32.00
2018-07-21T12:31:48.481Z,32.60
2018-07-21T12:34:16.963Z,32.60
2018-07-21T12:36:45.520Z,32.90
2018-07-21T12:39:14.004Z,32.10
2018-07-21T12:41:42.460Z,32.60
2018-07-21T12:44:10.876Z,32.00
2018-07-21T12:46:39.336Z,31.30
2018-07-21T12:49:07.773Z,33.00
2018-07-21T12:51:36.372Z,34.40
2018-07-21T12:54:04.848Z,35.10
2018-07-21T12:56:33.316Z,34.50
2018-07-21T12:59:01.760Z,31.30
2018-07-21T13:01:30.260Z,30.10
2018-07-21T13:03:58.716Z,31.60
2018-07-21T13:06:27.168Z,31.70
2018-07-21T13:08:55.604Z,32.40
2018-07-21T13:11:24.049Z,32.20
2018-07-21T13:13:52.485Z,30.90
2018-07-21T13:16:20.965Z,30.50
2018-07-21T13:18:49.411Z,29.70
2018-07-21T13:21:17.900Z,29.60
2018-07-21T13:23:46.364Z,30.40
2018-07-21T13:26:14.823Z,32.90
2018-07-21T13:28:43.280Z,31.50
2018-07-21T13:31:11.764Z,32.00
2018-07-21T13:33:40.237Z,33.30
2018-07-21T13:36:08.701Z,33.20
2018-07-21T13:38:37.165Z,33.50
2018-07-21T13:41:05.828Z,32.40
2018-07-21T13:43:34.334Z,30.30
2018-07-21T13:46:02.925Z,31.90
2018-07-21T13:48:31.392Z,30.60
2018-07-21T13:50:59.840Z,29.60
2018-07-21T13:53:28.285Z,30.70
2018-07-21T13:55:56.847Z,32.90
2018-07-21T13:58:25.306Z,32.80
2018-07-21T14:00:54.392Z,31.40
2018-07-21T14:03:22.836Z,29.10
2018-07-21T14:05:51.285Z,29.50
2018-07-21T14:08:19.764Z,28.80
2018-07-21T14:10:48.256Z,28.90
2018-07-21T14:13:16.717Z,30.00
2018-07-21T14:15:45.198Z,29.10
2018-07-21T14:18:13.647Z,30.40
2018-07-21T14:20:42.200Z,31.10
2018-07-21T14:23:10.650Z,31.90
2018-07-21T14:25:39.124Z,32.30
2018-07-21T14:28:07.581Z,31.60
2018-07-21T14:30:36.105Z,31.60
2018-07-21T14:33:04.569Z,30.60
2018-07-21T14:35:33.648Z,30.20
2018-07-21T14:38:02.265Z,29.30
2018-07-21T14:40:31.462Z,29.00
2018-07-21T14:42:59.900Z,29.80
2018-07-21T14:45:28.352Z,29.40
2018-07-21T14:47:56.820Z,28.90
2018-07-21T14:50:25.308Z,29.10
2018-07-21T14:52:53.871Z,29.80
2018-07-21T14:55:22.343Z,30.40
2018-07-21T14:57:51.263Z,29.40
2018-07-21T15:00:19.733Z,29.40
2018-07-21T15:02:48.187Z,29.20
2018-07-21T15:05:16.645Z,28.90
2018-07-21T15:07:45.066Z,28.80
2018-07-21T15:10:13.649Z,29.00
2018-07-21T15:12:42.061Z,29.20
2018-07-21T15:15:10.541Z,28.80
2018-07-21T15:17:39.049Z,28.90
2018-07-21T15:20:07.868Z,28.80
2018-07-21T15:22:36.304Z,28.50
2018-07-21T15:25:05.026Z,29.50
2018-07-21T15:27:33.528Z,29.40
2018-07-21T15:30:01.957Z,28.80
2018-07-21T15:32:30.414Z,28.50
2018-07-21T15:34:58.920Z,29.20
2018-07-21T15:37:27.770Z,29.20
2018-07-21T15:39:56.492Z,28.90
2018-07-21T15:42:25.013Z,29.80
2018-07-21T15:44:54.199Z,30.40
2018-07-21T15:47:22.684Z,29.70
2018-07-21T15:49:51.112Z,30.10
2018-07-21T15:52:19.778Z,30.40
2018-07-21T15:54:48.295Z,30.20
2018-07-21T15:57:16.732Z,29.60
2018-07-21T15:59:45.168Z,30.60
2018-07-21T16:02:13.648Z,29.30
2018-07-21T16:04:42.168Z,29.20
2018-07-21T16:07:10.636Z,29.70
2018-07-21T16:09:39.255Z,30.20
2018-07-21T16:12:07.788Z,30.00
2018-07-21T16:14:36.255Z,30.00
2018-07-21T16:17:05.685Z,30.30
2018-07-21T16:19:34.113Z,29.60
2018-07-21T16:22:02.625Z,29.00
2018-07-21T16:24:31.696Z,29.90
2018-07-21T16:27:00.213Z,30.40
2018-07-21T16:29:28.657Z,30.80
2018-07-21T16:31:57.092Z,30.80
2018-07-21T16:34:25.536Z,29.50
2018-07-21T16:36:53.981Z,29.70
2018-07-21T16:39:22.432Z,29.80
2018-07-21T16:41:50.861Z,29.60
2018-07-21T16:44:19.300Z,28.50
2018-07-21T16:46:47.737Z,28.90
2018-07-21T16:49:16.261Z,29.70
2018-07-21T16:51:44.706Z,29.90
2018-07-21T16:54:13.268Z,30.00
2018-07-21T16:56:41.825Z,30.00
2018-07-21T16:59:10.283Z,29.20
2018-07-21T17:01:38.817Z,29.50
2018-07-21T17:04:07.280Z,28.60
2018-07-21T17:06:35.701Z,28.50
2018-07-21T17:09:05.949Z,28.40
2018-07-21T17:11:34.769Z,28.10
2018-07-21T17:14:03.257Z,28.50
2018-07-21T17:16:31.744Z,28.40
2018-07-21T17:19:00.232Z,28.90
2018-07-21T17:21:29.244Z,28.80
2018-07-21T17:23:57.686Z,28.80
2018-07-21T17:26:26.129Z,28.40
2018-07-21T17:31:22.736Z,28.00
2018-07-21T17:33:51.168Z,28.20
2018-07-21T17:36:19.616Z,28.30
2018-07-21T17:38:48.087Z,27.80
2018-07-21T17:41:16.552Z,28.10
2018-07-21T17:43:45.504Z,28.90
2018-07-21T17:46:13.938Z,28.80
2018-07-21T17:48:42.384Z,28.30
2018-07-21T17:51:10.836Z,28.40
2018-07-21T17:53:39.520Z,28.30
2018-07-21T17:56:08.019Z,28.00
2018-07-21T17:58:36.417Z,27.80
2018-07-21T18:01:04.872Z,27.80
2018-07-21T18:03:33.917Z,27.60
2018-07-21T18:06:02.371Z,27.20
2018-07-21T18:08:31.074Z,27.00
2018-07-21T18:10:59.830Z,26.70
2018-07-21T18:13:28.245Z,26.80
2018-07-21T18:15:56.744Z,26.70
2018-07-21T18:18:25.136Z,26.40
2018-07-21T18:20:53.676Z,26.50
2018-07-21T18:23:22.208Z,26.70
2018-07-21T18:25:50.680Z,26.40
2018-07-21T18:28:20.051Z,26.30
2018-07-21T18:30:48.552Z,26.20
2018-07-21T18:33:17.065Z,26.30
2018-07-21T18:35:45.621Z,26.40
2018-07-21T18:38:14.053Z,26.30
2018-07-21T18:40:42.557Z,26.10
2018-07-21T18:43:11.052Z,25.90
2018-07-21T18:45:39.575Z,25.90
2018-07-21T18:48:08.051Z,25.60
2018-07-21T18:50:38.573Z,25.20
2018-07-21T18:53:07.176Z,25.30
2018-07-21T18:55:37.172Z,25.10
2018-07-21T18:58:06.357Z,25.30
2018-07-21T19:00:36.707Z,25.10
2018-07-21T19:03:05.541Z,25.00
2018-07-21T19:05:36.277Z,25.00
2018-07-21T19:08:07.269Z,25.00
2018-07-21T19:10:38.138Z,24.80
2018-07-21T19:13:08.855Z,24.90
2018-07-21T19:15:42.676Z,24.80
2018-07-21T19:18:13.036Z,24.60
2018-07-21T19:20:46.956Z,24.70
2018-07-21T19:23:15.416Z,24.50
2018-07-21T19:25:49.284Z,24.40
2018-07-21T19:28:17.777Z,24.20
2018-07-21T19:30:46.248Z,24.30
2018-07-21T19:33:16.800Z,24.20
2018-07-21T19:35:46.683Z,24.30
2018-07-21T19:38:15.144Z,24.30
2018-07-21T19:40:44.079Z,24.30
2018-07-21T19:43:18.355Z,24.30
2018-07-21T19:45:46.886Z,24.40
2018-07-21T19:48:15.261Z,24.50
2018-07-21T19:50:43.712Z,24.50
2018-07-21T19:53:12.167Z,24.60
2018-07-21T19:55:40.630Z,24.50
2018-07-21T19:58:09.074Z,24.60
2018-07-21T20:00:37.505Z,24.70
2018-07-21T20:03:06.064Z,24.60
2018-07-21T20:05:34.610Z,24.40
2018-07-21T20:08:03.083Z,24.40
2018-07-21T20:10:31.537Z,24.40
2018-07-21T20:12:59.992Z,24.40
2018-07-21T20:15:28.460Z,24.40
2018-07-21T20:17:56.876Z,24.30
2018-07-21T20:20:25.301Z,24.10
2018-07-21T20:22:53.774Z,24.10
2018-07-21T20:25:22.253Z,24.00
2018-07-21T20:27:50.696Z,23.90
2018-07-21T20:30:19.173Z,23.80
2018-07-21T20:32:47.601Z,23.80
2018-07-21T20:35:16.157Z,23.90
2018-07-21T20:37:44.568Z,23.70
2018-07-21T20:40:13.035Z,23.60
2018-07-21T20:42:41.688Z,23.60
2018-07-21T20:45:10.129Z,23.50
2018-07-21T20:47:38.573Z,23.40
2018-07-21T20:50:07.006Z,23.40
2018-07-21T20:52:35.464Z,23.30
2018-07-21T20:55:04.051Z,23.30
2018-07-21T20:57:32.612Z,23.30
2018-07-21T21:00:01.100Z,23.40
2018-07-21T21:02:29.572Z,23.30
2018-07-21T21:04:58.009Z,23.10
2018-07-21T21:07:27.165Z,23.00
2018-07-21T21:09:55.584Z,23.10
2018-07-21T21:12:24.158Z,22.90
2018-07-21T21:14:52.497Z,23.10
2018-07-21T21:17:20.953Z,22.90
2018-07-21T21:19:49.804Z,22.90
2018-07-21T21:22:18.753Z,23.10
2018-07-21T21:24:47.209Z,23.10
2018-07-21T21:27:15.702Z,23.00
2018-07-21T21:29:44.136Z,22.90
2018-07-21T21:34:40.856Z,22.60
2018-07-21T21:37:09.284Z,22.70
2018-07-21T21:39:37.738Z,22.40
2018-07-21T21:42:06.319Z,22.50
2018-07-21T21:44:34.935Z,22.30
2018-07-21T21:47:03.373Z,22.30
2018-07-21T21:49:31.836Z,22.20
2018-07-21T21:52:00.302Z,22.20
2018-07-21T21:54:28.795Z,22.30
2018-07-21T21:56:57.223Z,22.30
2018-07-21T21:59:25.689Z,22.20
2018-07-21T22:01:54.154Z,22.10
2018-07-21T22:04:22.590Z,21.90
2018-07-21T22:06:51.064Z,21.90
2018-07-21T22:09:19.545Z,22.00
2018-07-21T22:11:47.977Z,22.00
2018-07-21T22:14:16.999Z,21.80
2018-07-21T22:16:45.467Z,21.90
2018-07-21T22:19:13.909Z,21.80
2018-07-21T22:21:42.340Z,21.60
2018-07-21T22:24:10.805Z,21.60
2018-07-21T22:26:39.260Z,21.50
2018-07-21T22:29:07.696Z,21.30
2018-07-21T22:31:36.176Z,21.30
2018-07-21T22:34:04.639Z,21.30
2018-07-21T22:36:33.109Z,21.20
2018-07-21T22:39:01.541Z,21.30
2018-07-21T22:41:30.065Z,21.20
2018-07-21T22:43:59.129Z,21.10
2018-07-21T22:46:28.521Z,21.20
2018-07-21T22:48:57.271Z,21.20
2018-07-21T22:51:25.737Z,20.80
2018-07-21T22:53:54.180Z,20.90
2018-07-21T22:56:22.642Z,20.90
2018-07-21T22:58:51.048Z,20.80
2018-07-21T23:03:47.675Z,20.70
2018-07-21T23:06:16.121Z,20.50
2018-07-21T23:08:44.589Z,20.50
2018-07-21T23:11:13.104Z,20.60
2018-07-21T23:13:41.558Z,20.60
2018-07-21T23:16:10.030Z,20.60
2018-07-21T23:18:38.468Z,20.60
2018-07-21T23:21:06.932Z,20.40
2018-07-21T23:23:35.376Z,20.40
2018-07-21T23:26:03.812Z,20.30
2018-07-21T23:28:32.261Z,20.30
2018-07-21T23:31:00.761Z,20.20
2018-07-21T23:33:29.196Z,20.20
2018-07-21T23:35:58.616Z,20.10
2018-07-21T23:38:27.108Z,20.00
2018-07-21T23:40:55.528Z,20.00
2018-07-21T23:45:52.097Z,19.90
2018-07-21T23:48:20.531Z,19.80
2018-07-21T23:50:48.949Z,19.80
2018-07-21T23:53:18.112Z,19.80
2018-07-21T23:55:46.536Z,19.80
2018-07-21T23:58:15.029Z,19.70
